createdAt,value
2022-10-02T00:00:01.893Z,18.54
2022-10-02T00:05:18.163Z,18.50
2022-10-02T00:10:25.986Z,18.50
2022-10-02T00:15:32.526Z,18.63
2022-10-02T00:20:45.069Z,18.69
2022-10-02T00:25:54.205Z,18.75
2022-10-02T00:31:14.353Z,18.93
2022-10-02T00:36:32.254Z,18.79
2022-10-02T00:42:17.938Z,18.73
2022-10-02T00:47:31.446Z,18.81
2022-10-02T00:52:55.301Z,18.79
2022-10-02T00:58:08.685Z,18.94
2022-10-02T01:03:17.813Z,18.86
2022-10-02T01:08:22.980Z,18.84
2022-10-02T01:13:26.665Z,18.87
2022-10-02T01:18:31.286Z,18.86
2022-10-02T01:23:41.593Z,18.84
2022-10-02T01:28:47.591Z,18.78
2022-10-02T01:33:50.968Z,18.69
2022-10-02T01:38:55.479Z,18.65
2022-10-02T01:44:03.933Z,18.61
2022-10-02T01:49:40.489Z,18.69
2022-10-02T01:54:58.369Z,18.57
2022-10-02T02:00:09.405Z,18.64
2022-10-02T02:05:27.182Z,18.64
2022-10-02T02:10:41.255Z,18.67
2022-10-02T02:15:54.019Z,18.62
2022-10-02T02:21:00.898Z,18.50
2022-10-02T02:26:07.370Z,18.54
2022-10-02T02:31:15.498Z,18.49
2022-10-02T02:36:24.109Z,18.42
2022-10-02T02:41:30.145Z,18.44
2022-10-02T02:46:59.627Z,18.49
2022-10-02T02:52:06.779Z,18.41
2022-10-02T02:57:12.751Z,18.46
2022-10-02T03:02:22.786Z,18.45
2022-10-02T03:07:26.463Z,18.37
2022-10-02T03:12:39.703Z,18.35
2022-10-02T03:18:00.854Z,18.30
2022-10-02T03:23:14.827Z,18.35
2022-10-02T03:28:43.455Z,18.11
2022-10-02T03:33:49.937Z,18.03
2022-10-02T03:39:19.884Z,18.01
2022-10-02T03:44:19.655Z,18.02
2022-10-02T03:49:24.753Z,18.15
2022-10-02T03:54:32.994Z,18.16
2022-10-02T03:59:47.927Z,18.12
2022-10-02T04:04:58.078Z,18.10
2022-10-02T04:10:23.805Z,18.10
2022-10-02T04:15:31.993Z,18.18
2022-10-02T04:20:44.806Z,18.13
2022-10-02T04:25:53.588Z,18.23
2022-10-02T04:30:57.322Z,18.29
2022-10-02T04:36:10.987Z,18.26
2022-10-02T04:41:38.138Z,18.38
2022-10-02T04:46:57.556Z,18.39
2022-10-02T04:52:23.647Z,18.41
2022-10-02T04:57:46.523Z,18.43
2022-10-02T05:03:05.584Z,18.48
2022-10-02T05:08:43.806Z,18.53
2022-10-02T05:14:08.579Z,18.63
2022-10-02T05:19:30.682Z,18.61
2022-10-02T05:24:47.905Z,18.68
2022-10-02T05:30:06.802Z,18.62
2022-10-02T05:35:24.850Z,18.49
2022-10-02T05:40:33.040Z,18.42
2022-10-02T05:45:39.738Z,18.43
2022-10-02T05:50:44.259Z,18.34
2022-10-02T05:55:54.279Z,18.24
2022-10-02T06:01:06.314Z,18.21
2022-10-02T06:06:16.650Z,18.14
2022-10-02T06:11:28.383Z,18.08
2022-10-02T06:16:38.427Z,18.06
2022-10-02T06:21:48.237Z,18.03
2022-10-02T06:27:00.790Z,17.96
2022-10-02T06:32:15.543Z,17.95
2022-10-02T06:37:30.165Z,17.89
2022-10-02T06:42:47.304Z,17.79
2022-10-02T06:48:03.882Z,17.77
2022-10-02T06:53:20.370Z,17.95
2022-10-02T06:58:48.775Z,18.06
2022-10-02T07:04:26.161Z,18.74
2022-10-02T07:09:47.269Z,18.43
2022-10-02T07:15:15.667Z,18.28
2022-10-02T07:20:31.953Z,18.52
2022-10-02T07:26:02.813Z,18.83
2022-10-02T07:31:18.939Z,18.66
2022-10-02T07:36:36.781Z,19.42
2022-10-02T07:42:07.054Z,19.52
2022-10-02T07:47:25.760Z,19.69
2022-10-02T07:52:38.481Z,19.59
2022-10-02T07:57:46.899Z,19.51
2022-10-02T08:02:59.010Z,19.43
2022-10-02T08:08:11.193Z,19.39
2022-10-02T08:13:20.633Z,19.40
2022-10-02T08:18:35.104Z,19.50
2022-10-02T08:23:43.651Z,19.71
2022-10-02T08:28:53.788Z,19.51
2022-10-02T08:33:58.795Z,19.62
2022-10-02T08:39:16.169Z,19.77
2022-10-02T08:44:57.763Z,19.78
2022-10-02T08:50:30.237Z,19.75
2022-10-02T08:55:54.558Z,19.54
2022-10-02T09:01:17.400Z,19.54
2022-10-02T09:06:57.035Z,19.74
2022-10-02T09:12:44.714Z,20.36
2022-10-02T09:17:55.091Z,21.37
2022-10-02T09:23:16.918Z,20.87
2022-10-02T09:28:55.028Z,22.07
2022-10-02T09:34:28.084Z,21.56
2022-10-02T09:40:01.283Z,21.76
2022-10-02T09:45:44.106Z,22.34
2022-10-02T09:51:07.679Z,22.36
2022-10-02T09:56:46.642Z,21.94
2022-10-02T10:02:10.664Z,22.98
2022-10-02T10:07:51.964Z,23.12
2022-10-02T10:13:40.152Z,23.26
2022-10-02T10:19:16.799Z,23.77
2022-10-02T10:25:10.820Z,23.07
2022-10-02T10:30:38.276Z,22.69
2022-10-02T10:36:31.756Z,23.51
2022-10-02T10:41:59.002Z,23.31
2022-10-02T10:47:30.085Z,21.86
2022-10-02T10:52:55.631Z,21.31
2022-10-02T10:58:15.130Z,22.64
2022-10-02T11:04:02.541Z,22.71
2022-10-02T11:09:39.060Z,21.75
2022-10-02T11:15:00.447Z,21.57
2022-10-02T11:20:30.468Z,21.26
2022-10-02T11:26:03.394Z,21.12
2022-10-02T11:31:28.918Z,21.45
2022-10-02T11:36:47.715Z,21.57
2022-10-02T11:42:16.213Z,21.25
2022-10-02T11:47:42.139Z,21.16
2022-10-02T11:53:04.411Z,21.14
2022-10-02T11:58:20.870Z,21.25
2022-10-02T12:03:36.252Z,21.45
2022-10-02T12:09:03.046Z,22.65
2022-10-02T12:14:26.855Z,21.84
2022-10-02T12:20:13.486Z,21.33
2022-10-02T12:25:42.416Z,20.94
2022-10-02T12:30:51.562Z,20.72
2022-10-02T12:36:24.479Z,20.86
2022-10-02T12:41:43.341Z,21.76
2022-10-02T12:47:06.611Z,21.43
2022-10-02T12:52:55.336Z,20.91
2022-10-02T12:58:12.263Z,20.96
2022-10-02T13:03:52.290Z,20.72
2022-10-02T13:09:05.355Z,20.65
2022-10-02T13:14:39.190Z,21.08
2022-10-02T13:19:53.717Z,21.11
2022-10-02T13:25:19.122Z,20.83
2022-10-02T13:30:25.455Z,20.81
2022-10-02T13:35:40.562Z,20.83
2022-10-02T13:40:56.229Z,20.69
2022-10-02T13:46:11.119Z,20.87
2022-10-02T13:51:22.802Z,21.00
2022-10-02T13:56:37.811Z,20.73
2022-10-02T14:01:53.643Z,20.63
2022-10-02T14:07:05.521Z,20.63
2022-10-02T14:12:25.974Z,20.26
2022-10-02T14:17:37.955Z,20.11
2022-10-02T14:22:56.782Z,20.05
2022-10-02T14:28:25.708Z,20.03
2022-10-02T14:33:45.781Z,20.24
2022-10-02T14:39:18.314Z,20.41
2022-10-02T14:44:41.266Z,20.14
2022-10-02T14:50:04.867Z,19.99
2022-10-02T14:55:31.421Z,19.84
2022-10-02T15:00:41.642Z,19.77
2022-10-02T15:06:11.389Z,19.44
2022-10-02T15:11:22.705Z,19.44
2022-10-02T15:17:02.611Z,19.42
2022-10-02T15:22:19.724Z,19.34
2022-10-02T15:27:28.018Z,19.18
2022-10-02T15:32:49.886Z,19.29
2022-10-02T15:38:20.228Z,19.31
2022-10-02T15:43:39.368Z,19.27
2022-10-02T15:49:04.667Z,19.20
2022-10-02T15:54:19.367Z,19.04
2022-10-02T15:59:55.971Z,18.98
2022-10-02T16:05:15.321Z,18.94
2022-10-02T16:10:26.589Z,18.86
2022-10-02T16:15:37.073Z,18.84
2022-10-02T16:20:55.235Z,18.71
2022-10-02T16:26:14.113Z,18.72
2022-10-02T16:31:43.775Z,18.59
2022-10-02T16:36:52.700Z,18.54
2022-10-02T16:42:03.678Z,18.47
2022-10-02T16:47:13.992Z,18.43
2022-10-02T16:52:23.635Z,18.44
2022-10-02T16:57:50.368Z,18.43
2022-10-02T17:02:57.739Z,18.57
2022-10-02T17:08:06.937Z,18.55
2022-10-02T17:13:26.688Z,18.47
2022-10-02T17:18:40.020Z,18.52
2022-10-02T17:23:54.133Z,18.54
2022-10-02T17:29:08.221Z,18.43
2022-10-02T17:34:21.211Z,18.41
2022-10-02T17:39:43.504Z,18.30
2022-10-02T17:44:56.472Z,18.19
2022-10-02T17:50:16.171Z,18.09
2022-10-02T17:56:09.502Z,18.01
2022-10-02T18:01:24.784Z,18.08
2022-10-02T18:06:42.059Z,17.98
2022-10-02T18:12:18.609Z,17.81
2022-10-02T18:17:37.018Z,17.82
2022-10-02T18:23:15.239Z,17.90
2022-10-02T18:28:48.771Z,17.96
2022-10-02T18:34:17.219Z,17.88
2022-10-02T18:39:33.098Z,17.95
2022-10-02T18:44:49.919Z,17.88
2022-10-02T18:50:22.663Z,17.79
2022-10-02T18:55:41.137Z,17.74
2022-10-02T19:01:12.065Z,17.73
2022-10-02T19:06:21.805Z,17.61
2022-10-02T19:11:29.287Z,17.56
2022-10-02T19:16:32.740Z,17.56
2022-10-02T19:21:39.034Z,17.44
2022-10-02T19:26:47.041Z,17.47
2022-10-02T19:31:51.089Z,17.42
2022-10-02T19:37:00.368Z,17.30
2022-10-02T19:42:09.529Z,17.31
2022-10-02T19:47:17.330Z,17.24
2022-10-02T19:52:37.710Z,16.94
2022-10-02T19:57:42.058Z,16.79
2022-10-02T20:02:47.648Z,16.90
2022-10-02T20:07:56.248Z,16.89
2022-10-02T20:13:06.450Z,16.84
2022-10-02T20:18:11.112Z,16.72
2022-10-02T20:23:23.463Z,16.57
2022-10-02T20:28:34.156Z,16.55
2022-10-02T20:33:41.886Z,16.46
2022-10-02T20:38:52.289Z,16.40
2022-10-02T20:44:02.417Z,16.24
2022-10-02T20:49:21.947Z,16.09
2022-10-02T20:54:44.136Z,15.93
2022-10-02T21:00:17.128Z,15.91
2022-10-02T21:05:51.173Z,15.90
2022-10-02T21:11:16.239Z,15.96
2022-10-02T21:16:53.299Z,15.77
2022-10-02T21:22:35.561Z,15.58
2022-10-02T21:28:04.851Z,15.57
2022-10-02T21:33:15.661Z,15.56
2022-10-02T21:38:51.105Z,15.30
2022-10-02T21:44:26.919Z,15.24
2022-10-02T21:50:04.557Z,14.93
2022-10-02T21:55:41.309Z,14.96
2022-10-02T22:01:00.836Z,14.90
2022-10-02T22:06:28.376Z,14.66
2022-10-02T22:11:38.874Z,14.01
2022-10-02T22:16:55.223Z,13.97
2022-10-02T22:22:09.459Z,13.97
2022-10-02T22:27:28.716Z,14.05
2022-10-02T22:33:12.030Z,14.30
2022-10-02T22:38:20.737Z,14.38
2022-10-02T22:43:33.176Z,14.30
2022-10-02T22:48:46.129Z,14.09
2022-10-02T22:53:55.224Z,13.90
2022-10-02T22:59:13.310Z,13.96
2022-10-02T23:04:30.130Z,13.71
2022-10-02T23:09:43.541Z,13.63
2022-10-02T23:15:04.545Z,13.83
2022-10-02T23:20:18.058Z,14.06
2022-10-02T23:25:30.158Z,13.91
2022-10-02T23:30:38.889Z,13.87
2022-10-02T23:35:54.096Z,13.98
2022-10-02T23:41:23.872Z,14.04
2022-10-02T23:46:33.796Z,14.07
2022-10-02T23:51:47.918Z,14.16
2022-10-02T23:57:07.092Z,14.23
